Port Edwards, WI

11:40 AM CST on March 06, 2015 (GMT -0600)
Alexander Field South Wood County | Change Station
CLOSE
Current Station
Airport
Location: Wisconsin Rapids,
Elevation: 1020 ft
Nearby Weather Stations

Elev 1020 ft 44.36 °N, 89.84 °W | Updated 46 minutes ago

Overcast
Overcast
22 °F
Feels Like 9 °F
N
14
Wind Variable Wind from SSW

Today
High -- | Low -- °F
--% Chance of Precip.
Yesterday
High -- | Low -- °F
Precip. -- in
6:28 AM 5:53 PM
Full, 99% visible
Pressure 30.18 in
Visibility 10.0 miles
Clouds Overcast 9000 ft
Windchill 9 °F
Dew Point 6 °F
Humidity 51%
Rainfall 0.00 in
Snow Depth Not available.
UV 1 out of 12
Pollen .40 out of 12
Air Quality Not available.
Flu Activity Not available.
METAR KISW 061654Z AUTO 21012KT 10SM OVC090 M06/M14 A3011 RMK AO2 SLP219 T10561144

More Conditions Fewer Conditions

Pressure 30.18 in
Visibility 10.0 miles
Clouds Overcast 9000 ft
Windchill 9 °F
Dew Point 6 °F
Humidity 51%
Rainfall 0.00 in
Snow Depth Not available.
UV 1 out of 12
Pollen .40 out of 12
Air Quality Not available.
Flu Activity Not available.
METAR KISW 061654Z AUTO 21012KT 10SM OVC090 M06/M14 A3011 RMK AO2 SLP219 T10561144

More Conditions Fewer Conditions

10-Day Weather Forecast

Almanac

Astronomy

Mar. 06, 2015 Rise Set
Actual Time
Civil Twilight
Nautical Twilight
Astronomical Twilight
Moon
Length of Visible Light
Length of Day
Tomorrow will be .
, % of the Moon is Illuminated

Today's Extremes

State Highs State Lows

Community

WunderPhotos

Upload Photos

1,803,347 photos uploaded!

WunderBlogs® & News

Nearby

Air Quality

  Air Quality AQ Index Pollutant
Not available.

Snow Depth

Station Depth Elevation

Earthquake Activity

City Distance Mag. Time & Date
Minimum magnitude displayed is 2.5.

Coastal Water Temperatures

Place Temperature

Nearby Weather Stations